Time;durP1;ratioP1;P1;durP2;ratioP2;P2;SDS_P1;SDS_P2;PMS_P1;PMS_P2;Temp;Humidity;BMP_temperature;BMP_pressure;BME280_temperature;BME280_humidity;BME280_pressure;Samples;Min_cycle;Max_cycle;Signal;HPM_P1;HPM_P2
2023/02/06 00:01:21;;;;;;;20.88;3.70;;;2.10;99.90;;;;;;5127836;28;20661;-81
2023/02/06 00:03:47;;;;;;;21.70;3.83;;;1.90;99.90;;;;;;5110346;28;20069;-80
2023/02/06 00:06:14;;;;;;;19.83;3.95;;;1.90;99.90;;;;;;5127562;28;20119;-81
2023/02/06 00:08:41;;;;;;;21.35;4.05;;;1.90;99.90;;;;;;5110293;28;20040;-81
2023/02/06 00:11:11;;;;;;;23.65;4.55;;;1.90;99.90;;;;;;5127464;28;20040;-82
2023/02/06 00:13:38;;;;;;;20.92;3.72;;;1.90;99.90;;;;;;5110026;28;20518;-81
2023/02/06 00:16:08;;;;;;;21.55;4.25;;;1.90;99.90;;;;;;5110251;28;20040;-81
2023/02/06 00:18:35;;;;;;;17.15;3.22;;;2.00;99.90;;;;;;5109976;28;20122;-82
2023/02/06 00:21:01;;;;;;;15.77;3.53;;;1.90;99.90;;;;;;5093513;28;20131;-81
2023/02/06 00:23:28;;;;;;;23.65;3.75;;;2.00;99.90;;;;;;5127270;28;20492;-81
2023/02/06 00:25:56;;;;;;;15.93;3.22;;;2.00;99.90;;;;;;5109979;28;20052;-81
2023/02/06 00:28:22;;;;;;;17.65;3.60;;;2.00;99.90;;;;;;5110561;28;20466;-81
2023/02/06 00:30:49;;;;;;;24.23;4.03;;;2.00;99.90;;;;;;5126345;28;20105;-81
2023/02/06 00:33:16;;;;;;;22.20;4.28;;;2.00;99.90;;;;;;5127209;28;20122;-81
2023/02/06 00:35:42;;;;;;;31.17;3.80;;;2.10;99.90;;;;;;5100895;28;20118;-82
2023/02/06 00:38:10;;;;;;;18.30;3.42;;;2.20;99.90;;;;;;5089902;28;20033;-82
2023/02/06 00:40:37;;;;;;;24.15;3.95;;;2.10;99.90;;;;;;5122797;28;20055;-80
2023/02/06 00:43:04;;;;;;;29.60;3.72;;;2.10;99.90;;;;;;5106256;28;20065;-81
2023/02/06 00:45:31;;;;;;;17.73;3.92;;;2.10;99.90;;;;;;5112903;28;20780;-81
2023/02/06 00:47:59;;;;;;;22.80;3.40;;;2.40;99.90;;;;;;5125869;28;20036;-81
2023/02/06 00:50:26;;;;;;;19.67;2.88;;;2.10;99.90;;;;;;5126619;28;20147;-81
2023/02/06 00:52:52;;;;;;;21.83;3.50;;;2.10;99.90;;;;;;5109246;28;20119;-81
2023/02/06 00:55:19;;;;;;;23.85;3.92;;;2.20;99.90;;;;;;5127066;28;20365;-81
2023/02/06 00:57:46;;;;;;;15.88;3.22;;;2.10;99.90;;;;;;5126039;28;20048;-80
2023/02/06 01:00:13;;;;;;;19.83;3.88;;;2.20;99.90;;;;;;5126503;28;20083;-81
2023/02/06 01:02:40;;;;;;;22.27;4.15;;;2.10;99.90;;;;;;5125827;28;20571;-81
2023/02/06 01:05:07;;;;;;;17.67;3.60;;;2.20;99.90;;;;;;5126231;28;20043;-82
2023/02/06 01:07:37;;;;;;;14.18;3.20;;;2.10;99.90;;;;;;5109436;28;20093;-81
2023/02/06 01:10:04;;;;;;;12.68;3.17;;;2.20;99.90;;;;;;5109327;28;20036;-82
2023/02/06 01:12:33;;;;;;;19.52;3.55;;;2.20;99.90;;;;;;5109305;28;20101;-81
2023/02/06 01:15:01;;;;;;;12.43;2.85;;;2.40;99.90;;;;;;5126029;28;20136;-81
2023/02/06 01:17:29;;;;;;;14.70;3.10;;;2.20;99.90;;;;;;5109329;28;20407;-82
2023/02/06 01:19:56;;;;;;;21.70;2.95;;;2.40;99.90;;;;;;5108887;28;20058;-81
2023/02/06 01:22:22;;;;;;;15.52;3.05;;;2.10;99.90;;;;;;5108952;28;20485;-81
2023/02/06 01:24:49;;;;;;;15.77;2.97;;;2.20;99.90;;;;;;5092119;28;20480;-82
2023/02/06 01:27:16;;;;;;;20.85;3.17;;;2.30;99.90;;;;;;5125882;28;20121;-81
2023/02/06 01:29:42;;;;;;;15.85;2.75;;;3.00;99.90;;;;;;5092529;28;20043;-82
2023/02/06 01:32:09;;;;;;;20.05;2.90;;;2.30;99.90;;;;;;5125647;28;20040;-81
2023/02/06 01:34:36;;;;;;;20.95;2.90;;;2.30;99.90;;;;;;5108978;28;20384;-81
2023/02/06 01:37:02;;;;;;;18.08;3.10;;;2.30;99.90;;;;;;5108366;28;20089;-81
2023/02/06 01:39:29;;;;;;;22.38;3.25;;;2.40;99.90;;;;;;5125732;28;20050;-82
2023/02/06 01:41:56;;;;;;;12.18;2.63;;;2.40;99.90;;;;;;5108372;28;20051;-81
2023/02/06 01:44:25;;;;;;;17.15;2.85;;;3.10;99.90;;;;;;5125754;28;20044;-81
2023/02/06 01:46:54;;;;;;;16.10;2.70;;;2.40;99.90;;;;;;5091945;28;20036;-81
2023/02/06 01:49:30;;;;;;;15.77;3.05;;;2.40;99.90;;;;;;5125469;28;20423;-81
2023/02/06 01:52:10;;;;;;;23.60;3.00;;;2.40;99.90;;;;;;5108446;28;20039;-81
2023/02/06 01:54:37;;;;;;;19.67;3.40;;;2.40;99.90;;;;;;5125517;28;20385;-82
2023/02/06 01:57:06;;;;;;;27.30;3.53;;;2.70;99.90;;;;;;5124989;28;20044;-81
2023/02/06 01:59:34;;;;;;;26.45;3.08;;;2.80;99.90;;;;;;5125077;28;20071;-82
2023/02/06 02:02:02;;;;;;;14.88;2.78;;;2.60;99.90;;;;;;5108491;28;20096;-81
2023/02/06 02:04:31;;;;;;;14.85;2.72;;;2.40;99.90;;;;;;5108039;28;20039;-81
2023/02/06 02:07:21;;;;;;;19.80;2.90;;;2.40;99.90;;;;;;5091422;28;20044;-82
2023/02/06 02:09:48;;;;;;;19.05;2.97;;;2.40;99.90;;;;;;5108075;28;20040;-79
2023/02/06 02:12:15;;;;;;;23.20;2.55;;;2.40;99.90;;;;;;5125831;28;20392;-81
2023/02/06 02:14:44;;;;;;;15.77;3.10;;;2.80;99.90;;;;;;5108426;28;20040;-81
2023/02/06 02:17:39;;;;;;;16.35;2.70;;;2.40;99.90;;;;;;5125001;28;20121;-81
2023/02/06 02:20:24;;;;;;;19.55;2.75;;;2.30;99.90;;;;;;5124701;28;20048;-81
2023/02/06 02:23:00;;;;;;;18.52;2.80;;;2.30;99.90;;;;;;5124406;28;20139;-81
2023/02/06 02:26:04;;;;;;;13.75;3.30;;;2.20;99.90;;;;;;5125175;28;20112;-83
2023/02/06 02:28:46;;;;;;;14.18;2.55;;;2.20;99.90;;;;;;5125327;28;20114;-80
2023/02/06 02:31:32;;;;;;;12.10;2.38;;;2.10;99.90;;;;;;5124118;28;20047;-81
2023/02/06 02:34:36;;;;;;;19.92;2.85;;;2.10;99.90;;;;;;5141720;28;20036;-81
2023/02/06 02:37:15;;;;;;;15.02;2.53;;;2.00;99.90;;;;;;5107719;28;20177;-81
2023/02/06 02:39:50;;;;;;;15.52;2.45;;;1.90;99.90;;;;;;5108131;28;20040;-81
2023/02/06 02:42:46;;;;;;;21.27;2.53;;;2.00;99.90;;;;;;5124362;28;20131;-81
2023/02/06 02:45:38;;;;;;;23.80;2.88;;;1.90;99.90;;;;;;5109517;28;20143;-81
2023/02/06 02:48:17;;;;;;;22.88;3.08;;;1.90;99.90;;;;;;5107174;28;20101;-82
2023/02/06 02:50:44;;;;;;;12.77;2.20;;;1.90;99.90;;;;;;5124905;28;20040;-81
2023/02/06 02:53:12;;;;;;;19.58;2.65;;;1.80;99.90;;;;;;5107876;28;20044;-82
2023/02/06 02:55:39;;;;;;;20.40;3.40;;;2.10;99.90;;;;;;5124755;28;20036;-81
2023/02/06 02:58:09;;;;;;;16.50;2.53;;;1.80;99.90;;;;;;5107469;28;20064;-81
2023/02/06 03:00:42;;;;;;;15.52;2.20;;;2.50;99.90;;;;;;5107771;28;20152;-81
2023/02/06 03:03:11;;;;;;;21.05;3.47;;;1.90;99.90;;;;;;5124577;28;20399;-82
2023/02/06 03:05:59;;;;;;;17.25;2.30;;;2.30;99.90;;;;;;5107731;28;20052;-82
2023/02/06 03:08:45;;;;;;;21.02;2.85;;;1.80;99.90;;;;;;5124786;28;20043;-81
2023/02/06 03:11:16;;;;;;;19.40;2.67;;;1.80;99.90;;;;;;5110609;28;20513;-81
2023/02/06 03:13:57;;;;;;;16.70;2.38;;;1.90;99.90;;;;;;5128741;28;20048;-81
2023/02/06 03:16:49;;;;;;;20.60;2.83;;;1.90;99.90;;;;;;5129035;28;20028;-81
2023/02/06 03:19:36;;;;;;;18.98;3.13;;;1.90;99.90;;;;;;5127814;28;20087;-81
2023/02/06 03:22:04;;;;;;;18.80;3.13;;;1.90;99.90;;;;;;5110794;28;20048;-82
2023/02/06 03:24:35;;;;;;;16.42;2.30;;;1.90;99.90;;;;;;5111568;28;20479;-81
2023/02/06 03:27:07;;;;;;;14.90;2.30;;;2.00;99.90;;;;;;5128051;28;20040;-81
2023/02/06 03:29:36;;;;;;;19.55;2.30;;;1.90;99.90;;;;;;5128107;28;20039;-81
2023/02/06 03:32:24;;;;;;;17.25;3.15;;;1.90;99.90;;;;;;5110825;28;20036;-81
2023/02/06 03:35:11;;;;;;;16.98;2.97;;;1.90;99.90;;;;;;5145116;28;20201;-82
2023/02/06 03:37:38;;;;;;;17.45;2.20;;;1.90;99.90;;;;;;5128468;28;20408;-81
2023/02/06 03:40:07;;;;;;;16.73;2.65;;;1.90;99.90;;;;;;5127837;28;20039;-82
2023/02/06 03:42:39;;;;;;;19.98;2.95;;;1.90;99.90;;;;;;5111064;28;20047;-81
2023/02/06 03:45:24;;;;;;;17.17;2.30;;;1.90;99.90;;;;;;5110989;28;20492;-81
2023/02/06 03:47:55;;;;;;;13.90;2.05;;;1.80;99.90;;;;;;5110936;28;20036;-81
2023/02/06 03:50:24;;;;;;;15.20;2.22;;;1.90;99.90;;;;;;5127914;28;20077;-81
2023/02/06 03:52:52;;;;;;;14.45;2.10;;;1.80;99.90;;;;;;5111048;28;20042;-82
2023/02/06 03:55:22;;;;;;;15.32;2.22;;;2.00;99.90;;;;;;5094123;28;20050;-81
2023/02/06 03:58:12;;;;;;;16.77;2.17;;;1.70;99.90;;;;;;5110659;28;20047;-81
2023/02/06 04:00:42;;;;;;;17.48;2.20;;;1.70;99.90;;;;;;5111066;28;20048;-82
2023/02/06 04:03:10;;;;;;;15.27;2.38;;;1.90;99.90;;;;;;5144405;28;20040;-82
2023/02/06 04:05:38;;;;;;;18.50;2.30;;;1.70;99.90;;;;;;5110482;28;20082;-81
2023/02/06 04:08:05;;;;;;;14.70;2.20;;;1.70;99.90;;;;;;5110390;28;20036;-82
2023/02/06 04:10:32;;;;;;;10.32;1.90;;;1.70;99.90;;;;;;5110772;28;20040;-81
2023/02/06 04:12:59;;;;;;;21.38;2.33;;;1.70;99.90;;;;;;5144021;28;20036;-82
2023/02/06 04:15:25;;;;;;;17.02;2.40;;;1.70;99.90;;;;;;5127496;28;20044;-82
2023/02/06 04:17:52;;;;;;;10.82;2.00;;;1.70;99.90;;;;;;5126937;28;20051;-81
2023/02/06 04:20:19;;;;;;;23.10;2.45;;;2.00;99.90;;;;;;5110393;28;20050;-82
2023/02/06 04:22:46;;;;;;;14.30;2.22;;;1.30;99.90;;;;;;5125930;28;20200;-81
2023/02/06 04:25:13;;;;;;;14.02;2.33;;;1.80;99.90;;;;;;5109673;28;20556;-81
2023/02/06 04:27:40;;;;;;;14.48;2.22;;;1.80;99.90;;;;;;5126986;28;20142;-82
2023/02/06 04:30:07;;;;;;;14.27;2.75;;;1.80;99.90;;;;;;5110371;28;20549;-80
2023/02/06 04:32:34;;;;;;;16.13;2.35;;;1.80;99.90;;;;;;5127027;28;20032;-81
2023/02/06 04:35:01;;;;;;;16.58;2.30;;;1.80;99.90;;;;;;5127145;28;20093;-81
2023/02/06 04:37:27;;;;;;;12.00;2.17;;;1.80;99.90;;;;;;5109735;28;20040;-82
2023/02/06 04:39:54;;;;;;;16.20;2.10;;;1.80;99.90;;;;;;5126869;28;20044;-82
2023/02/06 04:42:21;;;;;;;15.05;2.08;;;1.90;99.90;;;;;;5126197;28;20137;-81
2023/02/06 04:44:48;;;;;;;14.52;2.40;;;2.00;99.90;;;;;;5109800;28;20404;-82
2023/02/06 04:47:14;;;;;;;18.83;2.20;;;1.90;99.90;;;;;;5109680;28;20040;-81
2023/02/06 04:49:41;;;;;;;23.35;3.08;;;2.00;99.90;;;;;;5127042;28;20071;-81
2023/02/06 04:52:08;;;;;;;10.55;2.00;;;1.90;99.90;;;;;;5126730;28;20032;-81
2023/02/06 04:54:34;;;;;;;20.48;2.83;;;2.10;99.90;;;;;;5126150;28;20044;-81
2023/02/06 04:57:01;;;;;;;22.63;2.38;;;2.00;99.90;;;;;;5126519;28;20055;-80
2023/02/06 04:59:28;;;;;;;18.65;1.80;;;2.00;99.90;;;;;;5126021;28;20044;-81
2023/02/06 05:01:55;;;;;;;24.33;2.97;;;2.00;99.90;;;;;;5109416;28;20058;-81
2023/02/06 05:04:21;;;;;;;10.52;1.83;;;2.00;99.90;;;;;;5126002;28;20044;-81
2023/02/06 05:06:48;;;;;;;13.65;2.17;;;2.00;99.90;;;;;;5109625;28;20040;-82
2023/02/06 05:09:15;;;;;;;23.50;2.75;;;2.00;99.90;;;;;;5109248;28;20519;-82
2023/02/06 05:11:41;;;;;;;13.98;2.75;;;2.00;99.90;;;;;;5109606;28;20068;-81
2023/02/06 05:14:08;;;;;;;16.17;2.15;;;2.00;99.90;;;;;;5109030;28;20040;-81
2023/02/06 05:16:35;;;;;;;12.52;2.17;;;2.10;99.90;;;;;;5125887;28;20051;-81
2023/02/06 05:19:01;;;;;;;14.95;2.03;;;2.00;99.90;;;;;;5125839;28;20086;-81
2023/02/06 05:21:28;;;;;;;14.77;2.58;;;2.00;99.90;;;;;;5091939;28;20492;-82
2023/02/06 05:23:55;;;;;;;16.38;2.30;;;2.00;99.90;;;;;;5108710;28;20081;-81
2023/02/06 05:26:22;;;;;;;13.45;2.20;;;2.20;99.90;;;;;;5108772;28;20032;-81
2023/02/06 05:28:48;;;;;;;14.45;2.00;;;2.10;99.90;;;;;;5125753;28;20113;-81
2023/02/06 05:31:18;;;;;;;15.88;2.22;;;2.10;99.90;;;;;;5126024;28;20036;-81
2023/02/06 05:33:47;;;;;;;19.02;2.33;;;2.10;99.90;;;;;;5109237;28;20043;-82
2023/02/06 05:36:14;;;;;;;15.52;2.53;;;2.10;99.90;;;;;;5125991;28;20036;-82
2023/02/06 05:38:40;;;;;;;15.68;1.92;;;2.10;99.90;;;;;;5125517;28;20093;-81
2023/02/06 05:41:07;;;;;;;14.15;2.33;;;2.20;99.90;;;;;;5109228;28;20094;-82
2023/02/06 05:43:34;;;;;;;17.00;2.65;;;2.20;99.90;;;;;;5108495;28;20040;-81
2023/02/06 05:46:01;;;;;;;21.33;2.90;;;2.30;99.90;;;;;;5108132;28;20040;-80
2023/02/06 05:48:29;;;;;;;27.33;3.03;;;2.20;99.90;;;;;;5125484;28;20046;-81
2023/02/06 05:50:57;;;;;;;23.88;2.83;;;2.20;99.90;;;;;;5126135;28;20127;-82
2023/02/06 05:53:23;;;;;;;16.00;2.70;;;2.20;99.90;;;;;;5125374;28;20115;-82
2023/02/06 05:55:50;;;;;;;22.25;2.72;;;2.20;99.90;;;;;;5125005;28;20136;-81
2023/02/06 05:58:17;;;;;;;13.65;2.40;;;2.20;99.90;;;;;;5108732;28;20048;-81
2023/02/06 06:00:44;;;;;;;14.68;2.25;;;3.00;99.90;;;;;;5108428;28;20093;-81
2023/02/06 06:03:11;;;;;;;18.40;3.25;;;2.20;99.90;;;;;;5125151;28;20040;-81
2023/02/06 06:05:38;;;;;;;18.25;3.47;;;2.30;99.90;;;;;;5124940;28;20036;-82
2023/02/06 06:08:04;;;;;;;17.15;3.15;;;2.30;99.90;;;;;;5125312;28;20043;-81
2023/02/06 06:10:31;;;;;;;26.38;4.82;;;2.40;99.90;;;;;;5124796;28;20040;-81
2023/02/06 06:12:58;;;;;;;24.88;4.35;;;2.30;99.90;;;;;;5125181;28;20081;-81
2023/02/06 06:15:25;;;;;;;17.05;3.00;;;2.40;99.90;;;;;;5125234;28;20087;-80
2023/02/06 06:17:52;;;;;;;22.45;3.10;;;2.60;99.90;;;;;;5108183;28;20040;-80
2023/02/06 06:20:18;;;;;;;23.33;2.92;;;2.40;99.90;;;;;;5125730;28;20082;-82
2023/02/06 06:22:45;;;;;;;25.10;2.63;;;2.40;99.90;;;;;;5125107;28;20573;-81
2023/02/06 06:25:12;;;;;;;27.50;2.88;;;2.50;99.90;;;;;;5108249;28;20404;-80
2023/02/06 06:27:39;;;;;;;25.05;2.60;;;2.50;99.90;;;;;;5108061;28;20036;-82
2023/02/06 06:30:06;;;;;;;24.08;2.58;;;2.50;99.90;;;;;;5125013;28;20062;-81
2023/02/06 06:32:33;;;;;;;16.48;2.67;;;2.50;99.90;;;;;;5107771;28;20036;-81
2023/02/06 06:34:59;;;;;;;20.48;2.38;;;2.50;99.90;;;;;;5108228;28;20145;-81
2023/02/06 06:37:26;;;;;;;15.68;2.67;;;2.60;99.90;;;;;;5107494;28;20048;-81
2023/02/06 06:39:53;;;;;;;14.20;2.53;;;2.50;99.90;;;;;;5107882;28;20044;-80
2023/02/06 06:42:19;;;;;;;20.02;2.78;;;2.60;99.90;;;;;;5124953;28;20446;-81
2023/02/06 06:44:46;;;;;;;17.10;1.92;;;2.50;99.90;;;;;;5091735;28;20514;-80
2023/02/06 06:47:13;;;;;;;15.73;2.97;;;2.60;99.90;;;;;;5119149;28;20054;-80
2023/02/06 06:49:39;;;;;;;14.50;2.67;;;2.50;99.90;;;;;;5126410;28;20093;-81
2023/02/06 06:52:06;;;;;;;21.70;2.90;;;2.60;99.90;;;;;;5094938;28;20072;-81
2023/02/06 06:54:33;;;;;;;15.98;2.78;;;2.50;99.90;;;;;;5111183;28;20496;-81
2023/02/06 06:56:59;;;;;;;14.85;2.88;;;2.60;99.90;;;;;;5127905;28;20337;-80
2023/02/06 06:59:26;;;;;;;14.15;1.55;;;2.70;99.90;;;;;;5095073;28;20048;-81
2023/02/06 07:01:53;;;;;;;10.55;1.83;;;2.50;99.90;;;;;;5111500;28;20388;-81
2023/02/06 07:04:20;;;;;;;10.07;1.35;;;3.10;99.90;;;;;;5119361;28;20151;-81
2023/02/06 07:06:47;;;;;;;13.43;1.52;;;2.50;99.90;;;;;;5107949;28;20047;-81
2023/02/06 07:09:13;;;;;;;13.15;1.20;;;2.50;99.90;;;;;;5136941;28;20032;-81
2023/02/06 07:11:40;;;;;;;8.90;1.45;;;2.40;99.90;;;;;;5110981;28;20036;-80
2023/02/06 07:14:07;;;;;;;11.30;2.40;;;2.50;99.90;;;;;;5128425;28;20047;-81
2023/02/06 07:16:33;;;;;;;6.25;1.27;;;2.80;99.90;;;;;;5119229;28;20040;-81
2023/02/06 07:19:00;;;;;;;10.65;2.28;;;2.40;99.90;;;;;;5121094;28;20118;-80
2023/02/06 07:21:27;;;;;;;9.00;1.67;;;2.40;99.90;;;;;;5118180;28;20037;-81
2023/02/06 07:23:53;;;;;;;10.15;1.70;;;2.70;99.90;;;;;;5117730;28;20039;-81
2023/02/06 07:26:20;;;;;;;12.90;2.28;;;2.40;99.90;;;;;;5093324;28;20033;-81
2023/02/06 07:28:48;;;;;;;7.90;1.42;;;2.40;99.90;;;;;;5121060;28;20063;-81
2023/02/06 07:31:15;;;;;;;6.72;1.48;;;2.40;99.90;;;;;;5105874;28;20125;-80
2023/02/06 07:33:42;;;;;;;8.02;2.22;;;2.40;99.90;;;;;;5087087;28;20079;-81
2023/02/06 07:36:10;;;;;;;12.07;2.15;;;2.60;99.90;;;;;;5121328;28;20028;-81
2023/02/06 07:38:37;;;;;;;9.07;2.35;;;2.40;99.90;;;;;;5098219;28;20041;-80
2023/02/06 07:41:03;;;;;;;12.75;2.03;;;2.50;99.90;;;;;;5119081;28;20085;-81
2023/02/06 07:43:30;;;;;;;8.07;2.25;;;2.50;99.90;;;;;;5115879;28;20040;-81
2023/02/06 07:46:02;;;;;;;12.00;2.10;;;2.60;99.90;;;;;;5090352;28;20032;-81
2023/02/06 07:48:29;;;;;;;13.13;2.10;;;2.60;99.90;;;;;;5127939;28;20028;-81
2023/02/06 07:51:02;;;;;;;9.00;2.22;;;2.60;99.90;;;;;;5122688;28;20061;-81
2023/02/06 07:53:28;;;;;;;9.48;1.60;;;2.70;99.90;;;;;;5128154;28;20076;-81
2023/02/06 07:55:55;;;;;;;14.50;2.03;;;3.30;99.90;;;;;;5127385;28;20051;-81
2023/02/06 07:58:22;;;;;;;14.15;2.00;;;2.90;99.90;;;;;;5109651;28;20415;-82
2023/02/06 08:00:48;;;;;;;17.55;2.55;;;2.90;99.90;;;;;;5102387;28;20090;-82
2023/02/06 08:03:15;;;;;;;13.45;1.80;;;3.50;99.90;;;;;;5101623;28;20044;-82
2023/02/06 08:05:42;;;;;;;17.48;3.22;;;3.00;99.90;;;;;;5112408;28;20052;-82
2023/02/06 08:08:09;;;;;;;10.48;1.67;;;3.20;99.90;;;;;;5102438;28;20075;-84
2023/02/06 08:10:39;;;;;;;11.00;2.28;;;3.10;99.90;;;;;;5083195;28;20041;-87
2023/02/06 08:13:06;;;;;;;5.22;1.85;;;3.10;99.90;;;;;;5112402;28;20450;-87
2023/02/06 08:15:33;;;;;;;21.52;2.50;;;3.10;99.90;;;;;;5121284;28;20119;-87
2023/02/06 08:18:00;;;;;;;12.23;2.40;;;3.10;99.90;;;;;;5096044;28;20068;-87
2023/02/06 08:20:26;;;;;;;13.55;2.20;;;3.10;99.90;;;;;;5100147;28;20044;-87
2023/02/06 08:22:53;;;;;;;8.73;1.70;;;3.10;99.90;;;;;;5111855;28;20120;-87
2023/02/06 08:25:20;;;;;;;11.15;1.85;;;3.10;99.90;;;;;;5113229;28;20045;-87
2023/02/06 08:27:50;;;;;;;10.43;2.90;;;3.10;99.90;;;;;;5107987;28;20509;-87
2023/02/06 08:30:17;;;;;;;16.20;2.38;;;3.20;99.90;;;;;;5103185;28;20040;-87
2023/02/06 08:32:43;;;;;;;8.35;1.88;;;3.20;99.90;;;;;;5091328;28;20037;-87
2023/02/06 08:35:11;;;;;;;8.07;1.92;;;3.30;99.90;;;;;;5115891;28;20492;-86
2023/02/06 08:37:37;;;;;;;13.38;2.13;;;3.40;99.90;;;;;;5105148;28;20048;-87
2023/02/06 08:40:04;;;;;;;17.20;2.40;;;3.50;99.90;;;;;;5113191;28;20123;-86
2023/02/06 08:42:31;;;;;;;17.50;2.95;;;3.60;99.90;;;;;;5111276;28;20075;-85
2023/02/06 08:44:58;;;;;;;13.13;2.55;;;3.70;99.90;;;;;;5110572;28;20075;-87
2023/02/06 08:47:25;;;;;;;14.77;2.35;;;3.70;99.90;;;;;;5091944;28;20037;-87
2023/02/06 08:49:51;;;;;;;14.13;2.28;;;4.10;99.90;;;;;;5102679;28;20063;-86
2023/02/06 08:52:18;;;;;;;11.85;2.42;;;3.80;99.90;;;;;;5094472;28;20055;-86
2023/02/06 08:54:45;;;;;;;10.00;2.17;;;3.90;99.90;;;;;;5110517;28;20048;-86
2023/02/06 08:57:12;;;;;;;10.85;1.92;;;3.90;99.90;;;;;;5090607;28;20059;-86
2023/02/06 08:59:40;;;;;;;9.05;1.75;;;4.00;99.90;;;;;;5107030;28;20059;-87
2023/02/06 09:02:09;;;;;;;14.38;1.73;;;4.00;99.90;;;;;;5100687;28;20041;-86
2023/02/06 09:04:36;;;;;;;7.15;1.70;;;4.00;99.90;;;;;;5099380;28;20059;-86
2023/02/06 09:07:03;;;;;;;9.98;2.40;;;4.10;99.90;;;;;;5126387;28;20062;-85
2023/02/06 09:09:30;;;;;;;19.35;2.97;;;4.10;99.90;;;;;;5109128;28;20502;-87
2023/02/06 09:12:01;;;;;;;10.38;2.22;;;4.50;99.90;;;;;;5093329;28;20036;-86
2023/02/06 09:14:28;;;;;;;9.90;2.42;;;4.20;99.90;;;;;;5115688;28;20043;-86
2023/02/06 09:16:56;;;;;;;14.88;2.22;;;4.30;99.90;;;;;;5105173;28;20513;-86
2023/02/06 09:19:24;;;;;;;16.20;2.22;;;4.40;99.90;;;;;;5100002;28;20501;-86
2023/02/06 09:21:51;;;;;;;12.63;2.15;;;4.40;99.90;;;;;;5113494;28;20970;-86
2023/02/06 09:24:18;;;;;;;11.95;2.53;;;4.50;99.90;;;;;;5096753;28;20040;-86
2023/02/06 09:26:45;;;;;;;12.85;2.53;;;4.60;99.90;;;;;;5101481;28;20182;-86
2023/02/06 09:29:12;;;;;;;13.68;2.35;;;4.60;99.90;;;;;;5109443;28;20031;-86
2023/02/06 09:31:40;;;;;;;17.70;2.20;;;4.60;99.90;;;;;;5089984;28;20040;-86
2023/02/06 09:34:09;;;;;;;20.40;2.95;;;4.70;99.90;;;;;;5095849;28;20088;-86
2023/02/06 09:36:36;;;;;;;21.83;3.08;;;4.70;99.90;;;;;;5141029;28;20149;-86
2023/02/06 09:39:05;;;;;;;13.63;2.05;;;4.80;99.90;;;;;;5080446;28;20512;-86
2023/02/06 09:41:47;;;;;;;13.88;2.28;;;4.80;99.90;;;;;;5089946;28;20048;-86
2023/02/06 09:44:30;;;;;;;20.00;2.20;;;4.90;99.90;;;;;;5089549;28;20037;-87
2023/02/06 09:47:08;;;;;;;14.70;2.15;;;4.90;99.90;;;;;;5089244;28;20036;-86
2023/02/06 09:49:48;;;;;;;22.10;2.85;;;5.00;99.90;;;;;;5099168;28;20051;-86
2023/02/06 09:52:29;;;;;;;9.73;2.30;;;5.10;99.90;;;;;;5117581;28;20050;-86
2023/02/06 09:55:17;;;;;;;10.93;2.38;;;5.10;99.90;;;;;;5126889;28;20427;-85
2023/02/06 09:58:25;;;;;;;16.75;2.45;;;5.10;99.90;;;;;;5133570;28;20047;-87
2023/02/06 10:00:59;;;;;;;11.30;1.95;;;5.20;99.90;;;;;;5125212;28;20454;-85
2023/02/06 10:04:00;;;;;;;15.27;3.00;;;5.20;99.90;;;;;;5115207;28;20105;-87
2023/02/06 10:06:48;;;;;;;20.77;2.47;;;5.30;99.90;;;;;;5107140;28;20048;-87
2023/02/06 10:09:47;;;;;;;24.05;2.60;;;5.40;99.90;;;;;;5109664;28;20048;-86
2023/02/06 10:12:21;;;;;;;18.30;2.20;;;5.40;99.90;;;;;;5083546;28;20450;-87
2023/02/06 10:14:54;;;;;;;17.90;3.33;;;5.50;99.90;;;;;;5114285;28;20040;-86
2023/02/06 10:17:32;;;;;;;11.32;2.53;;;5.50;99.90;;;;;;5090025;28;20076;-84
2023/02/06 10:20:23;;;;;;;10.63;2.05;;;5.70;99.90;;;;;;5109390;28;20044;-87
2023/02/06 10:23:25;;;;;;;16.90;3.05;;;6.10;99.90;;;;;;5089297;28;20553;-86
2023/02/06 10:26:16;;;;;;;12.48;1.77;;;5.80;99.90;;;;;;5089079;28;20090;-87
2023/02/06 10:28:47;;;;;;;24.60;2.55;;;5.90;99.90;;;;;;5091683;28;20040;-87
2023/02/06 10:31:29;;;;;;;12.05;2.97;;;5.90;99.90;;;;;;5126184;28;20071;-86
2023/02/06 10:34:16;;;;;;;17.25;2.28;;;5.90;99.90;;;;;;5126256;28;20079;-87
2023/02/06 10:36:52;;;;;;;15.30;2.50;;;6.00;99.90;;;;;;5109117;28;20051;-88
2023/02/06 10:39:57;;;;;;;12.32;2.90;;;6.10;99.90;;;;;;5108895;28;20403;-86
2023/02/06 10:42:49;;;;;;;17.10;2.08;;;6.10;99.90;;;;;;5108698;28;20047;-87
2023/02/06 10:45:36;;;;;;;13.10;3.03;;;6.20;99.90;;;;;;5125398;28;20801;-87
2023/02/06 10:48:19;;;;;;;12.18;1.98;;;6.30;99.90;;;;;;5128746;28;20455;-86
2023/02/06 10:51:04;;;;;;;26.20;2.90;;;6.40;99.90;;;;;;5126713;28;20067;-87
2023/02/06 10:53:35;;;;;;;16.15;2.88;;;6.40;99.90;;;;;;5125979;28;20032;-84
2023/02/06 10:56:07;;;;;;;22.77;2.72;;;6.50;99.90;;;;;;5118453;28;20041;-87
2023/02/06 10:59:00;;;;;;;13.98;2.30;;;6.60;99.90;;;;;;5120733;28;20124;-87
2023/02/06 11:01:34;;;;;;;21.35;3.10;;;6.60;99.90;;;;;;5106695;28;20048;-86
2023/02/06 11:04:28;;;;;;;16.17;2.67;;;6.60;99.90;;;;;;5099177;28;20040;-86
2023/02/06 11:07:00;;;;;;;19.92;2.60;;;6.60;99.90;;;;;;5096203;28;20056;-87
2023/02/06 11:09:27;;;;;;;17.60;2.40;;;6.60;99.90;;;;;;5108824;28;20036;-87
2023/02/06 11:11:57;;;;;;;13.85;2.78;;;6.60;99.90;;;;;;5085434;28;20094;-81
2023/02/06 11:14:31;;;;;;;11.27;2.55;;;6.60;99.90;;;;;;5111966;28;20044;-87
2023/02/06 11:16:59;;;;;;;16.47;2.87;;;6.70;99.90;;;;;;5105716;28;20087;-87
2023/02/06 11:19:40;;;;;;;18.42;2.33;;;6.70;99.90;;;;;;5094486;28;20114;-87
2023/02/06 11:22:10;;;;;;;11.73;1.83;;;6.80;99.90;;;;;;5110186;28;20043;-86
2023/02/06 11:24:56;;;;;;;21.73;2.67;;;6.90;99.90;;;;;;5119506;28;20048;-88
2023/02/06 11:27:23;;;;;;;11.33;1.87;;;7.00;99.90;;;;;;5091634;28;20044;-87
2023/02/06 11:29:50;;;;;;;14.75;2.20;;;7.00;99.90;;;;;;5099636;28;20067;-86
2023/02/06 11:32:44;;;;;;;12.63;1.95;;;7.10;99.90;;;;;;5097235;28;20041;-83
2023/02/06 11:35:30;;;;;;;17.38;1.88;;;7.10;99.90;;;;;;5076774;28;20505;-86
2023/02/06 11:38:06;;;;;;;;;;;7.20;99.90;;;;;;5099272;28;20075;-86
2023/02/06 11:40:33;;;;;;;10.63;1.48;;;7.20;99.90;;;;;;5124853;28;19916;-87
2023/02/06 11:43:22;;;;;;;13.80;1.88;;;7.20;99.90;;;;;;5109879;28;20097;-87
2023/02/06 11:46:03;;;;;;;14.50;1.27;;;7.20;99.90;;;;;;5113118;28;20036;-85
2023/02/06 11:48:58;;;;;;;16.42;2.47;;;7.20;99.90;;;;;;5096684;28;20139;-88
2023/02/06 11:51:43;;;;;;;21.42;2.03;;;7.30;99.90;;;;;;5105155;28;20043;-87
2023/02/06 11:54:22;;;;;;;11.48;1.75;;;7.30;99.90;;;;;;5142932;28;20046;-89
2023/02/06 11:57:20;;;;;;;6.53;1.45;;;7.30;99.90;;;;;;5126995;28;20036;-87
2023/02/06 11:59:56;;;;;;;8.70;1.55;;;7.30;99.90;;;;;;5125619;28;20159;-87
2023/02/06 12:02:24;;;;;;;;;;;7.30;99.90;;;;;;5107115;28;20111;-87
2023/02/06 12:05:16;;;;;;;9.80;2.13;;;7.30;99.90;;;;;;5116814;28;20346;-86
2023/02/06 12:07:55;;;;;;;6.97;1.55;;;7.40;99.90;;;;;;5125342;28;20080;-87
2023/02/06 12:10:24;;;;;;;11.00;1.73;;;7.40;99.90;;;;;;5125492;28;20476;-87
2023/02/06 12:12:55;;;;;;;14.43;2.35;;;7.40;99.90;;;;;;5099440;28;20075;-87
2023/02/06 12:15:32;;;;;;;10.75;1.40;;;7.40;99.90;;;;;;5111621;28;20044;-86
2023/02/06 12:18:08;;;;;;;16.02;2.03;;;7.40;99.90;;;;;;5111832;28;20050;-87
2023/02/06 12:20:43;;;;;;;13.35;1.33;;;7.50;99.90;;;;;;5112807;28;20058;-87
2023/02/06 12:23:28;;;;;;;9.13;1.80;;;7.50;99.90;;;;;;5128760;28;20104;-86
2023/02/06 12:26:03;;;;;;;11.13;1.42;;;7.50;99.90;;;;;;5112336;28;20143;-86
2023/02/06 12:28:48;;;;;;;12.63;1.88;;;7.50;99.90;;;;;;5131300;28;20063;-86
2023/02/06 12:31:24;;;;;;;16.38;1.48;;;7.60;99.90;;;;;;5129489;28;20032;-87
2023/02/06 12:33:57;;;;;;;14.77;2.28;;;7.60;99.90;;;;;;5111717;28;20044;-86
2023/02/06 12:36:32;;;;;;;;;;;7.50;99.90;;;;;;5112103;28;20046;-87
2023/02/06 12:39:04;;;;;;;6.57;1.50;;;7.50;99.90;;;;;;5129059;28;19969;-86
2023/02/06 12:41:56;;;;;;;11.93;1.58;;;7.50;99.90;;;;;;5108755;28;20036;-85
2023/02/06 12:44:46;;;;;;;6.18;1.42;;;7.50;99.90;;;;;;5127561;28;20055;-86
2023/02/06 12:47:31;;;;;;;11.07;1.90;;;7.50;99.90;;;;;;5144972;28;20408;-86
2023/02/06 12:50:27;;;;;;;9.55;2.05;;;7.50;99.90;;;;;;5129187;28;20035;-86
2023/02/06 12:53:17;;;;;;;7.93;1.93;;;7.50;99.90;;;;;;5127864;28;20042;-86
2023/02/06 12:55:54;;;;;;;10.48;1.40;;;7.50;99.90;;;;;;5122214;28;20185;-86
2023/02/06 12:58:52;;;;;;;10.07;2.20;;;7.50;99.90;;;;;;5127482;28;21014;-86
2023/02/06 13:01:56;;;;;;;9.45;1.73;;;7.50;99.90;;;;;;5127956;28;20100;-87
2023/02/06 13:04:26;;;;;;;11.43;1.70;;;7.50;99.90;;;;;;5093906;28;20128;-87
2023/02/06 13:07:15;;;;;;;13.18;1.85;;;7.50;99.90;;;;;;5106837;28;20117;-87
2023/02/06 13:09:59;;;;;;;13.10;2.13;;;7.40;99.90;;;;;;5108350;28;20044;-86
2023/02/06 13:12:28;;;;;;;10.30;2.08;;;7.40;99.90;;;;;;5100594;28;20097;-87
2023/02/06 13:15:00;;;;;;;9.07;1.52;;;7.30;99.90;;;;;;5108846;28;20036;-87